createdAt,value
2022-09-30T00:00:03.332Z,0.00
2022-09-30T00:01:03.239Z,0.00
2022-09-30T00:02:03.348Z,0.00
2022-09-30T00:03:03.273Z,0.00
2022-09-30T00:04:03.215Z,0.00
2022-09-30T00:05:03.213Z,0.00
2022-09-30T00:06:07.833Z,0.00
2022-09-30T00:07:04.177Z,0.00
2022-09-30T00:08:03.172Z,0.00
2022-09-30T00:09:03.188Z,0.00
2022-09-30T00:10:03.155Z,0.00
2022-09-30T00:11:03.159Z,0.00
2022-09-30T00:12:03.140Z,0.00
2022-09-30T00:13:03.114Z,0.00
2022-09-30T00:14:03.110Z,0.00
2022-09-30T00:15:03.100Z,0.00
2022-09-30T00:16:03.170Z,0.00
2022-09-30T00:17:03.070Z,0.00
2022-09-30T00:18:03.066Z,0.00
2022-09-30T00:19:03.050Z,0.00
2022-09-30T00:20:03.071Z,0.00
2022-09-30T00:21:03.030Z,0.00
2022-09-30T00:22:03.024Z,0.00
2022-09-30T00:23:03.015Z,0.00
2022-09-30T00:24:02.995Z,0.00
2022-09-30T00:25:03.003Z,0.00
2022-09-30T00:26:02.975Z,0.00
2022-09-30T00:27:03.000Z,0.00
2022-09-30T00:28:02.950Z,0.00
2022-09-30T00:29:02.934Z,0.00
2022-09-30T00:30:02.931Z,0.00
2022-09-30T00:31:03.003Z,0.00
2022-09-30T00:32:02.919Z,0.00
2022-09-30T00:33:02.906Z,0.00
2022-09-30T00:34:02.893Z,0.00
2022-09-30T00:35:02.871Z,0.00
2022-09-30T00:36:02.857Z,0.00
2022-09-30T00:37:02.851Z,0.00
2022-09-30T00:38:02.842Z,0.00
2022-09-30T00:39:02.846Z,0.00
2022-09-30T00:40:02.825Z,0.00
2022-09-30T00:41:02.805Z,0.00
2022-09-30T00:42:02.806Z,0.00
2022-09-30T00:43:02.807Z,0.00
2022-09-30T00:44:02.776Z,0.00
2022-09-30T00:45:02.764Z,0.00
2022-09-30T00:46:02.741Z,0.00
2022-09-30T00:47:02.778Z,0.00
2022-09-30T00:48:02.721Z,0.00
2022-09-30T00:49:02.707Z,0.00
2022-09-30T00:50:02.708Z,0.00
2022-09-30T00:51:02.697Z,0.00
2022-09-30T00:52:02.677Z,0.00
2022-09-30T00:53:02.678Z,0.00
2022-09-30T00:54:02.663Z,0.00
2022-09-30T00:55:02.645Z,0.00
2022-09-30T00:56:02.660Z,0.00
2022-09-30T00:57:02.629Z,0.00
2022-09-30T00:58:02.616Z,0.00
2022-09-30T00:59:02.630Z,0.00
2022-09-30T01:00:02.586Z,0.00
2022-09-30T01:01:02.649Z,0.00
2022-09-30T01:02:02.698Z,0.00
2022-09-30T01:03:02.559Z,0.00
2022-09-30T01:04:02.566Z,0.00
2022-09-30T01:05:02.539Z,0.00
2022-09-30T01:06:02.529Z,0.00
2022-09-30T01:07:02.508Z,0.00
2022-09-30T01:08:02.509Z,0.00
2022-09-30T01:09:02.530Z,0.00
2022-09-30T01:10:02.499Z,0.00
2022-09-30T01:11:07.883Z,0.00
2022-09-30T01:12:03.469Z,0.00
2022-09-30T01:13:02.448Z,0.00
2022-09-30T01:14:02.438Z,0.00
2022-09-30T01:15:02.444Z,0.00
2022-09-30T01:16:02.525Z,0.00
2022-09-30T01:17:02.406Z,0.00
2022-09-30T01:18:02.424Z,0.00
2022-09-30T01:19:02.375Z,0.00
2022-09-30T01:20:02.366Z,0.00
2022-09-30T01:21:02.354Z,0.00
2022-09-30T01:22:02.346Z,0.00
2022-09-30T01:23:02.339Z,0.00
2022-09-30T01:24:02.331Z,0.00
2022-09-30T01:25:02.314Z,0.00
2022-09-30T01:26:02.307Z,0.00
2022-09-30T01:27:02.295Z,0.00
2022-09-30T01:28:02.290Z,0.00
2022-09-30T01:29:02.272Z,0.00
2022-09-30T01:30:02.257Z,0.00
2022-09-30T01:31:02.357Z,0.00
2022-09-30T01:32:02.249Z,0.00
2022-09-30T01:33:02.226Z,0.00
2022-09-30T01:34:02.226Z,0.00
2022-09-30T01:35:02.216Z,0.00
2022-09-30T01:36:02.194Z,0.00
2022-09-30T01:37:02.234Z,0.00
2022-09-30T01:38:02.175Z,0.00
2022-09-30T01:39:02.171Z,0.00
2022-09-30T01:40:02.187Z,0.00
2022-09-30T01:41:02.138Z,0.00
2022-09-30T01:42:02.120Z,0.00
2022-09-30T01:43:02.113Z,0.00
2022-09-30T01:44:02.105Z,0.00
2022-09-30T01:45:02.099Z,0.00
2022-09-30T01:46:02.096Z,0.00
2022-09-30T01:47:02.160Z,0.00
2022-09-30T01:48:02.066Z,0.00
2022-09-30T01:49:02.054Z,0.00
2022-09-30T01:50:02.048Z,0.00
2022-09-30T01:51:02.025Z,0.00
2022-09-30T01:52:02.021Z,0.00
2022-09-30T01:53:02.011Z,0.00
2022-09-30T01:54:01.994Z,0.00
2022-09-30T01:55:01.976Z,0.00
2022-09-30T01:56:01.965Z,0.00
2022-09-30T01:57:01.959Z,0.00
2022-09-30T01:58:01.954Z,0.00
2022-09-30T01:59:01.947Z,0.00
2022-09-30T02:00:01.929Z,0.00
2022-09-30T02:01:02.026Z,0.00
2022-09-30T02:02:02.023Z,0.00
2022-09-30T02:03:01.938Z,0.00
2022-09-30T02:04:01.882Z,0.00
2022-09-30T02:05:01.869Z,0.00
2022-09-30T02:06:01.866Z,0.00
2022-09-30T02:07:01.847Z,0.00
2022-09-30T02:08:01.831Z,0.00
2022-09-30T02:09:01.887Z,0.00
2022-09-30T02:10:01.820Z,0.00
2022-09-30T02:11:01.818Z,0.00
2022-09-30T02:12:01.812Z,0.00
2022-09-30T02:13:01.783Z,0.00
2022-09-30T02:14:01.770Z,0.00
2022-09-30T02:15:01.756Z,0.00
2022-09-30T02:16:01.794Z,0.00
2022-09-30T02:17:01.737Z,0.00
2022-09-30T02:18:01.731Z,0.00
2022-09-30T02:19:01.761Z,0.00
2022-09-30T02:20:01.709Z,0.00
2022-09-30T02:21:01.698Z,0.00
2022-09-30T02:22:01.677Z,0.00
2022-09-30T02:23:01.667Z,0.00
2022-09-30T02:24:01.676Z,0.00
2022-09-30T02:25:01.642Z,0.00
2022-09-30T02:26:01.645Z,0.00
2022-09-30T02:27:01.627Z,0.00
2022-09-30T02:28:01.616Z,0.00
2022-09-30T02:29:01.611Z,0.00
2022-09-30T02:30:01.602Z,0.00
2022-09-30T02:31:01.658Z,0.00
2022-09-30T02:32:01.576Z,0.00
2022-09-30T02:33:01.565Z,0.00
2022-09-30T02:34:01.551Z,0.00
2022-09-30T02:35:01.570Z,0.00
2022-09-30T02:36:01.533Z,0.00
2022-09-30T02:37:01.520Z,0.00
2022-09-30T02:38:01.516Z,0.00
2022-09-30T02:39:01.486Z,0.00
2022-09-30T02:40:01.488Z,0.00
2022-09-30T02:41:01.469Z,0.00
2022-09-30T02:42:01.464Z,0.00
2022-09-30T02:43:01.469Z,0.00
2022-09-30T02:44:01.437Z,0.00
2022-09-30T02:45:01.429Z,0.00
2022-09-30T02:46:01.413Z,0.00
2022-09-30T02:47:01.511Z,0.00
2022-09-30T02:48:01.395Z,0.00
2022-09-30T02:49:01.375Z,0.00
2022-09-30T02:50:01.376Z,0.00
2022-09-30T02:51:01.431Z,0.00
2022-09-30T02:52:01.357Z,0.00
2022-09-30T02:53:01.358Z,0.00
2022-09-30T02:54:01.317Z,0.00
2022-09-30T02:55:01.345Z,0.00
2022-09-30T02:56:01.303Z,0.00
2022-09-30T02:57:01.289Z,0.00
2022-09-30T02:58:01.274Z,0.00
2022-09-30T02:59:01.274Z,0.00
2022-09-30T03:00:03.427Z,0.00
2022-09-30T03:01:01.354Z,0.00
2022-09-30T03:02:01.333Z,0.00
2022-09-30T03:03:01.229Z,0.00
2022-09-30T03:04:01.205Z,0.00
2022-09-30T03:05:01.207Z,0.00
2022-09-30T03:06:01.183Z,0.00
2022-09-30T03:07:01.249Z,0.00
2022-09-30T03:08:01.162Z,0.00
2022-09-30T03:09:01.198Z,0.00
2022-09-30T03:10:01.154Z,0.00
2022-09-30T03:11:01.145Z,0.00
2022-09-30T03:12:01.122Z,0.00
2022-09-30T03:13:01.113Z,0.00
2022-09-30T03:14:01.098Z,0.00
2022-09-30T03:15:01.094Z,0.00
2022-09-30T03:16:01.157Z,0.00
2022-09-30T03:17:01.090Z,0.00
2022-09-30T03:18:01.059Z,0.00
2022-09-30T03:19:01.060Z,0.00
2022-09-30T03:20:01.030Z,0.00
2022-09-30T03:21:01.027Z,0.00
2022-09-30T03:22:01.009Z,0.00
2022-09-30T03:23:01.027Z,0.00
2022-09-30T03:24:00.981Z,0.00
2022-09-30T03:25:00.976Z,0.00
2022-09-30T03:26:00.970Z,0.00
2022-09-30T03:27:00.968Z,0.00
2022-09-30T03:28:00.950Z,0.00
2022-09-30T03:29:00.948Z,0.00
2022-09-30T03:30:00.920Z,0.00
2022-09-30T03:31:00.953Z,0.00
2022-09-30T03:32:00.905Z,0.00
2022-09-30T03:33:00.885Z,0.00
2022-09-30T03:34:00.889Z,0.00
2022-09-30T03:35:00.863Z,0.00
2022-09-30T03:36:00.877Z,0.00
2022-09-30T03:37:03.978Z,0.00
2022-09-30T03:38:00.838Z,0.00
2022-09-30T03:39:00.838Z,0.00
2022-09-30T03:40:00.826Z,0.00
2022-09-30T03:41:00.800Z,0.00
2022-09-30T03:42:00.807Z,0.00
2022-09-30T03:43:00.793Z,0.00
2022-09-30T03:44:00.773Z,0.00
2022-09-30T03:45:00.755Z,0.00
2022-09-30T03:46:00.740Z,0.00
2022-09-30T03:47:00.744Z,0.00
2022-09-30T03:48:00.720Z,0.00
2022-09-30T03:49:00.729Z,0.00
2022-09-30T03:50:00.702Z,0.00
2022-09-30T03:51:00.715Z,0.00
2022-09-30T03:52:00.687Z,0.00
2022-09-30T03:53:00.667Z,0.00
2022-09-30T03:54:00.652Z,0.00
2022-09-30T03:55:00.661Z,0.00
2022-09-30T03:56:00.646Z,0.00
2022-09-30T03:57:00.629Z,0.00
2022-09-30T03:58:00.612Z,0.00
2022-09-30T03:59:00.595Z,0.00
2022-09-30T04:00:00.590Z,0.00
2022-09-30T04:01:00.633Z,0.00
2022-09-30T04:02:00.662Z,0.00
2022-09-30T04:03:00.567Z,0.00
2022-09-30T04:04:00.547Z,0.00
2022-09-30T04:05:00.537Z,0.00
2022-09-30T04:06:00.527Z,0.00
2022-09-30T04:07:00.521Z,0.00
2022-09-30T04:08:00.508Z,0.00
2022-09-30T04:09:00.524Z,0.00
2022-09-30T04:10:00.484Z,0.00
2022-09-30T04:11:00.490Z,0.00
2022-09-30T04:12:00.448Z,0.00
2022-09-30T04:13:00.443Z,0.00
2022-09-30T04:14:00.431Z,0.00
2022-09-30T04:15:00.422Z,0.00
2022-09-30T04:16:00.464Z,0.00
2022-09-30T04:17:00.405Z,0.00
2022-09-30T04:18:00.387Z,0.00
2022-09-30T04:19:00.382Z,0.00
2022-09-30T04:20:00.366Z,0.00
2022-09-30T04:21:00.376Z,0.00
2022-09-30T04:22:00.346Z,0.00
2022-09-30T04:23:00.331Z,0.00
2022-09-30T04:24:00.343Z,0.00
2022-09-30T04:25:00.319Z,0.00
2022-09-30T04:26:00.300Z,0.00
2022-09-30T04:27:00.303Z,0.00
2022-09-30T04:28:00.288Z,0.00
2022-09-30T04:29:00.278Z,0.00
2022-09-30T04:30:00.251Z,0.00
2022-09-30T04:31:00.242Z,0.00
2022-09-30T04:32:00.224Z,0.00
2022-09-30T04:33:00.222Z,0.00
2022-09-30T04:34:00.208Z,0.00
2022-09-30T04:35:00.203Z,0.00
2022-09-30T04:36:00.198Z,0.00
2022-09-30T04:37:00.182Z,0.00
2022-09-30T04:38:00.159Z,0.00
2022-09-30T04:39:00.155Z,0.00
2022-09-30T04:40:00.140Z,0.00
2022-09-30T04:41:00.127Z,0.00
2022-09-30T04:42:00.139Z,0.00
2022-09-30T04:43:00.135Z,0.00
2022-09-30T04:44:00.090Z,0.00
2022-09-30T04:45:00.086Z,0.00
2022-09-30T04:46:00.179Z,0.00
2022-09-30T04:47:00.060Z,0.00
2022-09-30T04:48:00.078Z,0.00
2022-09-30T04:49:00.047Z,0.00
2022-09-30T04:50:00.035Z,0.00
2022-09-30T04:51:00.042Z,0.00
2022-09-30T04:52:00.012Z,0.00
2022-09-30T04:52:59.991Z,0.00
2022-09-30T04:53:59.991Z,0.00
2022-09-30T04:54:59.969Z,0.00
2022-09-30T04:55:59.961Z,0.00
2022-09-30T04:56:59.954Z,0.00
2022-09-30T04:57:59.949Z,0.00
2022-09-30T04:58:59.950Z,0.00
2022-09-30T04:59:59.912Z,0.00
2022-09-30T05:00:59.959Z,0.00
2022-09-30T05:02:00.013Z,0.00
2022-09-30T05:02:59.893Z,4.00
2022-09-30T05:03:59.890Z,4.00
2022-09-30T05:04:59.857Z,4.00
2022-09-30T05:05:59.863Z,4.00
2022-09-30T05:06:59.978Z,4.00
2022-09-30T05:07:59.840Z,4.00
2022-09-30T05:08:59.875Z,8.00
2022-09-30T05:09:59.831Z,8.00
2022-09-30T05:10:59.794Z,8.00
2022-09-30T05:11:59.782Z,8.00
2022-09-30T05:12:59.823Z,12.00
2022-09-30T05:13:59.767Z,12.00
2022-09-30T05:14:59.766Z,20.00
2022-09-30T05:15:59.813Z,20.00
2022-09-30T05:16:59.744Z,28.00
2022-09-30T05:17:59.733Z,32.00
2022-09-30T05:18:59.719Z,36.00
2022-09-30T05:19:59.704Z,44.00
2022-09-30T05:20:59.687Z,48.00
2022-09-30T05:21:59.704Z,56.00
2022-09-30T05:22:59.676Z,60.00
2022-09-30T05:23:59.663Z,68.00
2022-09-30T05:24:59.642Z,76.00
2022-09-30T05:25:59.630Z,84.00
2022-09-30T05:26:59.622Z,96.00
2022-09-30T05:27:59.614Z,108.00
2022-09-30T05:28:59.608Z,116.00
2022-09-30T05:30:00.411Z,128.00
2022-09-30T05:30:59.683Z,144.00
2022-09-30T05:31:59.675Z,156.00
2022-09-30T05:32:59.552Z,164.00
2022-09-30T05:33:59.550Z,180.00
2022-09-30T05:34:59.544Z,192.00
2022-09-30T05:35:59.508Z,204.00
2022-09-30T05:37:00.396Z,220.00
2022-09-30T05:37:59.529Z,236.00
2022-09-30T05:38:59.502Z,252.00
2022-09-30T05:39:59.482Z,268.00
2022-09-30T05:41:00.426Z,284.00
2022-09-30T05:41:59.485Z,308.00
2022-09-30T05:42:59.466Z,320.00
2022-09-30T05:43:59.452Z,340.00
2022-09-30T05:44:59.414Z,360.00
2022-09-30T05:45:59.428Z,380.00
2022-09-30T05:46:59.452Z,396.00
2022-09-30T05:47:59.397Z,416.00
2022-09-30T05:48:59.432Z,436.00
2022-09-30T05:49:59.353Z,448.00
2022-09-30T05:50:59.401Z,468.00
2022-09-30T05:51:59.344Z,500.00
2022-09-30T05:52:59.341Z,516.00
2022-09-30T05:53:59.315Z,540.00
2022-09-30T05:54:59.445Z,576.00
2022-09-30T05:55:59.303Z,600.00
2022-09-30T05:56:59.319Z,628.00
2022-09-30T05:57:59.266Z,644.00
2022-09-30T05:58:59.263Z,664.00
2022-09-30T05:59:59.258Z,680.00
2022-09-30T06:01:05.581Z,700.00
2022-09-30T06:02:00.393Z,724.00
2022-09-30T06:02:59.354Z,736.00
2022-09-30T06:03:59.226Z,748.00
2022-09-30T06:04:59.198Z,784.00
2022-09-30T06:05:59.186Z,820.00
2022-09-30T06:06:59.256Z,848.00
2022-09-30T06:07:59.158Z,888.00
2022-09-30T06:08:59.202Z,904.00
2022-09-30T06:09:59.168Z,940.00
2022-09-30T06:10:59.131Z,988.00
2022-09-30T06:11:59.916Z,1004.00
2022-09-30T06:12:59.105Z,1040.00
2022-09-30T06:13:59.141Z,1056.00
2022-09-30T06:14:59.171Z,1108.00
2022-09-30T06:15:59.193Z,1096.00
2022-09-30T06:16:59.434Z,1116.00
2022-09-30T06:17:59.079Z,1132.00
2022-09-30T06:18:59.066Z,1188.00
2022-09-30T06:19:59.038Z,1176.00
2022-09-30T06:20:59.030Z,1188.00
2022-09-30T06:21:59.006Z,1220.00
2022-09-30T06:22:58.984Z,1272.00
2022-09-30T06:23:59.018Z,1276.00
2022-09-30T06:24:58.980Z,1300.00
2022-09-30T06:25:58.978Z,1348.00
2022-09-30T06:26:58.945Z,1340.00
2022-09-30T06:27:58.951Z,1396.00
2022-09-30T06:28:58.949Z,1452.00
2022-09-30T06:29:58.942Z,1460.00
2022-09-30T06:30:58.902Z,1508.00
2022-09-30T06:31:58.973Z,1512.00
2022-09-30T06:32:58.894Z,1600.00
2022-09-30T06:33:58.924Z,1632.00
2022-09-30T06:34:58.886Z,1684.00
2022-09-30T06:35:58.854Z,1716.00
2022-09-30T06:36:58.827Z,1696.00
2022-09-30T06:37:58.831Z,1712.00
2022-09-30T06:38:58.854Z,1852.00
2022-09-30T06:39:58.817Z,1928.00
2022-09-30T06:40:58.795Z,1980.00
2022-09-30T06:41:58.860Z,2068.00
2022-09-30T06:42:58.790Z,2072.00
2022-09-30T06:44:10.536Z,2132.00
2022-09-30T06:45:00.425Z,2164.00
2022-09-30T06:46:10.633Z,2212.00
2022-09-30T06:46:59.840Z,2260.00
2022-09-30T06:48:00.673Z,2276.00
2022-09-30T06:49:13.520Z,2216.00
2022-09-30T06:49:59.701Z,2244.00
2022-09-30T06:51:01.858Z,2208.00
2022-09-30T06:51:58.683Z,2272.00
2022-09-30T06:52:58.713Z,2308.00
2022-09-30T06:53:58.645Z,2328.00
2022-09-30T06:54:58.638Z,2384.00
2022-09-30T06:55:58.618Z,2484.00
2022-09-30T06:56:58.619Z,2516.00
2022-09-30T06:57:58.616Z,2568.00
2022-09-30T06:58:58.587Z,2640.00
2022-09-30T06:59:58.658Z,2760.00
2022-09-30T07:00:58.647Z,2864.00
2022-09-30T07:01:58.613Z,2992.00
2022-09-30T07:02:58.575Z,3024.00
2022-09-30T07:03:58.552Z,3352.00
2022-09-30T07:04:58.590Z,3376.00
2022-09-30T07:05:58.508Z,3548.00
2022-09-30T07:06:58.593Z,3380.00
2022-09-30T07:07:58.516Z,3424.00
2022-09-30T07:08:58.577Z,3460.00
2022-09-30T07:09:59.902Z,3488.00
2022-09-30T07:10:58.448Z,3412.00
2022-09-30T07:11:58.461Z,3680.00
2022-09-30T07:12:58.460Z,3600.00
2022-09-30T07:13:58.429Z,3500.00
2022-09-30T07:14:58.401Z,3544.00
2022-09-30T07:15:58.514Z,3448.00
2022-09-30T07:16:58.403Z,3744.00
2022-09-30T07:17:58.373Z,3624.00
2022-09-30T07:18:58.483Z,3800.00
2022-09-30T07:19:58.397Z,4068.00
2022-09-30T07:20:58.364Z,4088.00
2022-09-30T07:21:58.908Z,4480.00
2022-09-30T07:22:58.394Z,4432.00
2022-09-30T07:23:58.316Z,4340.00
2022-09-30T07:24:58.297Z,4396.00
2022-09-30T07:25:58.317Z,4484.00
2022-09-30T07:26:58.311Z,4284.00
2022-09-30T07:27:58.269Z,4596.00
2022-09-30T07:28:58.254Z,4792.00
2022-09-30T07:30:08.789Z,4832.00
2022-09-30T07:31:20.089Z,4852.00
2022-09-30T07:31:59.300Z,5100.00
2022-09-30T07:32:58.220Z,5284.00
2022-09-30T07:33:58.211Z,5472.00
2022-09-30T07:34:58.215Z,5300.00
2022-09-30T07:35:58.235Z,5356.00
2022-09-30T07:36:58.184Z,5540.00
2022-09-30T07:37:58.180Z,5544.00
2022-09-30T07:38:58.159Z,5476.00
2022-09-30T07:39:58.162Z,5476.00
2022-09-30T07:40:58.139Z,5128.00
2022-09-30T07:41:59.433Z,5276.00
2022-09-30T07:42:58.096Z,5216.00
2022-09-30T07:43:58.083Z,4868.00
2022-09-30T07:44:58.098Z,5132.00
2022-09-30T07:45:58.112Z,5288.00
2022-09-30T07:46:58.136Z,5548.00
2022-09-30T07:47:58.056Z,5464.00
2022-09-30T07:48:58.061Z,5756.00
2022-09-30T07:49:58.044Z,5752.00
2022-09-30T07:50:58.041Z,5896.00
2022-09-30T07:51:58.005Z,5672.00
2022-09-30T07:52:57.996Z,5680.00
2022-09-30T07:53:58.031Z,6012.00
2022-09-30T07:54:58.032Z,5580.00
2022-09-30T07:55:57.960Z,5284.00
2022-09-30T07:57:09.643Z,5324.00
2022-09-30T07:57:58.934Z,5532.00
2022-09-30T07:58:57.945Z,5784.00
2022-09-30T07:59:57.958Z,6308.00
2022-09-30T08:00:57.986Z,6192.00
2022-09-30T08:01:57.931Z,5908.00
2022-09-30T08:02:57.932Z,5360.00
2022-09-30T08:03:57.882Z,5304.00
2022-09-30T08:04:57.945Z,5532.00
2022-09-30T08:05:58.392Z,5452.00
2022-09-30T08:06:58.034Z,5312.00
2022-09-30T08:07:57.825Z,5692.00
2022-09-30T08:08:57.835Z,6192.00
2022-09-30T08:09:57.876Z,6156.00
2022-09-30T08:10:58.432Z,5952.00
2022-09-30T08:11:57.790Z,5532.00
2022-09-30T08:12:59.942Z,5152.00
2022-09-30T08:13:57.796Z,5388.00
2022-09-30T08:14:57.758Z,5740.00
2022-09-30T08:15:57.740Z,5588.00
2022-09-30T08:16:57.804Z,5248.00
2022-09-30T08:17:57.741Z,5120.00
2022-09-30T08:18:57.735Z,5256.00
2022-09-30T08:19:57.766Z,5076.00
2022-09-30T08:20:57.672Z,4784.00
2022-09-30T08:21:57.904Z,4948.00
2022-09-30T08:22:57.676Z,5080.00
2022-09-30T08:23:57.946Z,5240.00
2022-09-30T08:24:57.715Z,5176.00
2022-09-30T08:25:57.627Z,5032.00
2022-09-30T08:26:57.715Z,4728.00
2022-09-30T08:27:57.610Z,4616.00
2022-09-30T08:28:57.622Z,4828.00
2022-09-30T08:30:01.158Z,4736.00
2022-09-30T08:30:58.598Z,4792.00
2022-09-30T08:31:57.618Z,4740.00
2022-09-30T08:32:57.581Z,4736.00
2022-09-30T08:33:57.551Z,4780.00
2022-09-30T08:34:57.537Z,4804.00
2022-09-30T08:35:57.515Z,4820.00
2022-09-30T08:36:59.691Z,4756.00
2022-09-30T08:37:57.544Z,4740.00
2022-09-30T08:38:57.502Z,4800.00
2022-09-30T08:39:57.481Z,4784.00
2022-09-30T08:40:57.464Z,4772.00
2022-09-30T08:41:59.766Z,4788.00
2022-09-30T08:42:57.878Z,4768.00
2022-09-30T08:43:57.433Z,4780.00
2022-09-30T08:44:57.479Z,4776.00
2022-09-30T08:45:57.583Z,4792.00
2022-09-30T08:46:58.494Z,4796.00
2022-09-30T08:47:57.435Z,4796.00
2022-09-30T08:48:59.887Z,4800.00
2022-09-30T08:49:59.979Z,4796.00
2022-09-30T08:50:57.344Z,4800.00
2022-09-30T08:51:57.924Z,4808.00
2022-09-30T08:52:59.938Z,4812.00
2022-09-30T08:53:57.318Z,4812.00
2022-09-30T08:54:57.324Z,4816.00
2022-09-30T08:55:57.346Z,4828.00
2022-09-30T08:56:57.293Z,4836.00
2022-09-30T08:57:57.331Z,4844.00
2022-09-30T08:58:57.511Z,4848.00
2022-09-30T08:59:57.244Z,4852.00
2022-09-30T09:00:57.361Z,4856.00
2022-09-30T09:01:57.375Z,4860.00
2022-09-30T09:02:57.285Z,4868.00
2022-09-30T09:03:57.195Z,4876.00
2022-09-30T09:04:57.186Z,4876.00
2022-09-30T09:05:57.200Z,4884.00
2022-09-30T09:06:57.193Z,4892.00
2022-09-30T09:07:57.164Z,4900.00
2022-09-30T09:08:57.166Z,4900.00
2022-09-30T09:09:57.131Z,4908.00
2022-09-30T09:10:57.130Z,4916.00
2022-09-30T09:11:57.187Z,4920.00
2022-09-30T09:12:58.128Z,4928.00
2022-09-30T09:13:57.082Z,4940.00
2022-09-30T09:14:57.132Z,4956.00
2022-09-30T09:15:57.078Z,4964.00
2022-09-30T09:16:57.106Z,4972.00
2022-09-30T09:18:18.799Z,4984.00
2022-09-30T09:18:58.034Z,4984.00
2022-09-30T09:19:57.101Z,4992.00
2022-09-30T09:20:57.049Z,5000.00
2022-09-30T09:22:01.955Z,5004.00
2022-09-30T09:22:56.995Z,5004.00
2022-09-30T09:23:57.891Z,5012.00
2022-09-30T09:24:56.993Z,5020.00
2022-09-30T09:25:56.979Z,5020.00
2022-09-30T09:26:57.890Z,5032.00
2022-09-30T09:27:57.525Z,5032.00
2022-09-30T09:28:57.912Z,5036.00
2022-09-30T09:29:56.953Z,5052.00
2022-09-30T09:30:57.489Z,5056.00
2022-09-30T09:31:56.925Z,5064.00
2022-09-30T09:32:56.919Z,5064.00
2022-09-30T09:33:56.892Z,5072.00
2022-09-30T09:34:58.424Z,5080.00
2022-09-30T09:35:56.855Z,5080.00
2022-09-30T09:36:56.828Z,5088.00
2022-09-30T09:37:56.852Z,5092.00
2022-09-30T09:38:56.844Z,5100.00
2022-09-30T09:40:01.705Z,5100.00
2022-09-30T09:40:58.044Z,5104.00
2022-09-30T09:41:56.773Z,5112.00
2022-09-30T09:42:57.426Z,5116.00
2022-09-30T09:43:56.795Z,5116.00
2022-09-30T09:44:56.763Z,5124.00
2022-09-30T09:45:56.800Z,5128.00
2022-09-30T09:46:56.760Z,5132.00
2022-09-30T09:47:56.732Z,5136.00
2022-09-30T09:48:56.745Z,5148.00
2022-09-30T09:49:57.544Z,5148.00
2022-09-30T09:50:56.679Z,5152.00
2022-09-30T09:51:56.702Z,5160.00
2022-09-30T09:52:56.717Z,5164.00
2022-09-30T09:53:56.647Z,5168.00
2022-09-30T09:54:56.708Z,5172.00
2022-09-30T09:55:56.643Z,5176.00
2022-09-30T09:56:56.607Z,5184.00
2022-09-30T09:57:56.587Z,5192.00
2022-09-30T09:58:56.590Z,5200.00
2022-09-30T09:59:56.760Z,5208.00
2022-09-30T10:00:56.608Z,5216.00
2022-09-30T10:01:56.579Z,5224.00
2022-09-30T10:02:56.583Z,5232.00
2022-09-30T10:03:56.523Z,5240.00
2022-09-30T10:04:56.544Z,5248.00
2022-09-30T10:05:56.526Z,5256.00
2022-09-30T10:06:56.941Z,5264.00
2022-09-30T10:07:56.489Z,5272.00
2022-09-30T10:08:56.565Z,5280.00
2022-09-30T10:09:56.470Z,5284.00
2022-09-30T10:10:56.516Z,5304.00
2022-09-30T10:11:56.455Z,5312.00
2022-09-30T10:12:56.428Z,5316.00
2022-09-30T10:13:56.446Z,5328.00
2022-09-30T10:14:56.466Z,5336.00
2022-09-30T10:15:56.457Z,5348.00
2022-09-30T10:16:56.371Z,5356.00
2022-09-30T10:17:56.373Z,5364.00
2022-09-30T10:18:56.412Z,5372.00
2022-09-30T10:19:56.348Z,5380.00
2022-09-30T10:20:56.352Z,5388.00
2022-09-30T10:21:57.460Z,5396.00
2022-09-30T10:22:56.318Z,5412.00
2022-09-30T10:23:56.316Z,5428.00
2022-09-30T10:24:56.411Z,5452.00
2022-09-30T10:25:56.332Z,5472.00
2022-09-30T10:26:56.292Z,5488.00
2022-09-30T10:27:56.393Z,5512.00
2022-09-30T10:28:56.263Z,5520.00
2022-09-30T10:29:56.246Z,5528.00
2022-09-30T10:30:56.218Z,5540.00
2022-09-30T10:31:59.149Z,5560.00
2022-09-30T10:32:56.258Z,5584.00
2022-09-30T10:33:56.200Z,5604.00
2022-09-30T10:34:56.202Z,5612.00
2022-09-30T10:35:56.910Z,5636.00
2022-09-30T10:36:56.192Z,5652.00
2022-09-30T10:37:56.165Z,5668.00
2022-09-30T10:38:56.158Z,5676.00
2022-09-30T10:39:56.123Z,5704.00
2022-09-30T10:40:56.172Z,5732.00
2022-09-30T10:41:56.115Z,5752.00
2022-09-30T10:42:56.131Z,5772.00
2022-09-30T10:43:56.069Z,5784.00
2022-09-30T10:44:56.054Z,5808.00
2022-09-30T10:46:20.871Z,5808.00
2022-09-30T10:46:57.156Z,5828.00
2022-09-30T10:47:56.042Z,5856.00
2022-09-30T10:48:56.014Z,5904.00
2022-09-30T10:49:56.140Z,5944.00
2022-09-30T10:50:56.023Z,5968.00
2022-09-30T10:51:55.986Z,5988.00
2022-09-30T10:52:55.996Z,6004.00
2022-09-30T10:53:56.488Z,6040.00
2022-09-30T10:54:56.041Z,6088.00
2022-09-30T10:55:55.948Z,6116.00
2022-09-30T10:56:55.921Z,6140.00
2022-09-30T10:57:55.916Z,6176.00
2022-09-30T10:59:55.925Z,6248.00
2022-09-30T11:00:55.958Z,6268.00
2022-09-30T11:01:57.630Z,6312.00
2022-09-30T11:02:55.911Z,6356.00
2022-09-30T11:03:55.936Z,6360.00
2022-09-30T11:04:55.867Z,6376.00
2022-09-30T11:05:55.831Z,6404.00
2022-09-30T11:06:55.851Z,6432.00
2022-09-30T11:07:55.805Z,6456.00
2022-09-30T11:08:55.826Z,6480.00
2022-09-30T11:09:55.769Z,6524.00
2022-09-30T11:10:55.768Z,6588.00
2022-09-30T11:11:55.746Z,6672.00
2022-09-30T11:12:55.794Z,6716.00
2022-09-30T11:13:55.765Z,6756.00
2022-09-30T11:14:55.737Z,6824.00
2022-09-30T11:15:55.778Z,6876.00
2022-09-30T11:16:55.742Z,6940.00
2022-09-30T11:17:55.683Z,7004.00
2022-09-30T11:18:55.663Z,7104.00
2022-09-30T11:19:55.676Z,7140.00
2022-09-30T11:20:55.682Z,7164.00
2022-09-30T11:21:55.656Z,7196.00
2022-09-30T11:22:55.788Z,7268.00
2022-09-30T11:23:55.610Z,7380.00
2022-09-30T11:24:55.667Z,7508.00
2022-09-30T11:25:55.640Z,7640.00
2022-09-30T11:26:55.621Z,7728.00
2022-09-30T11:27:55.706Z,7824.00
2022-09-30T11:28:55.551Z,7948.00
2022-09-30T11:29:55.559Z,8100.00
2022-09-30T11:30:55.564Z,8188.00
2022-09-30T11:31:55.666Z,8184.00
2022-09-30T11:32:55.557Z,8236.00
2022-09-30T11:33:56.412Z,8352.00
2022-09-30T11:34:55.549Z,8536.00
2022-09-30T11:35:55.565Z,8768.00
2022-09-30T11:36:55.482Z,8996.00
2022-09-30T11:37:55.465Z,9212.00
2022-09-30T11:38:55.511Z,9376.00
2022-09-30T11:39:55.440Z,9468.00
2022-09-30T11:40:55.444Z,9420.00
2022-09-30T11:41:55.427Z,9268.00
2022-09-30T11:42:55.474Z,9196.00
2022-09-30T11:43:55.411Z,9160.00
2022-09-30T11:44:55.415Z,9128.00
2022-09-30T11:45:55.450Z,9280.00
2022-09-30T11:46:55.355Z,9492.00
2022-09-30T11:47:55.377Z,9780.00
2022-09-30T11:48:55.353Z,10100.00
2022-09-30T11:49:55.345Z,10392.00
2022-09-30T11:50:55.326Z,10632.00
2022-09-30T11:51:55.302Z,10752.00
2022-09-30T11:52:55.284Z,8476.00
2022-09-30T11:53:55.285Z,9048.00
2022-09-30T11:54:57.937Z,7992.00
2022-09-30T11:55:55.262Z,7800.00
2022-09-30T11:56:55.314Z,7892.00
2022-09-30T11:57:55.923Z,10296.00
2022-09-30T11:58:55.228Z,10076.00
2022-09-30T11:59:55.298Z,9548.00
2022-09-30T12:00:55.901Z,7680.00
2022-09-30T12:01:55.483Z,10180.00
2022-09-30T12:02:55.266Z,7896.00
2022-09-30T12:03:55.167Z,7948.00
2022-09-30T12:04:58.024Z,8164.00
2022-09-30T12:05:55.156Z,8392.00
2022-09-30T12:06:55.129Z,8544.00
2022-09-30T12:07:55.142Z,9320.00
2022-09-30T12:08:55.126Z,11740.00
2022-09-30T12:09:55.117Z,9404.00
2022-09-30T12:10:55.115Z,9320.00
2022-09-30T12:11:55.113Z,8692.00
2022-09-30T12:12:55.075Z,8740.00
2022-09-30T12:13:55.066Z,9756.00
2022-09-30T12:14:55.060Z,11980.00
2022-09-30T12:15:55.436Z,9200.00
2022-09-30T12:16:55.128Z,8532.00
2022-09-30T12:17:55.014Z,10332.00
2022-09-30T12:18:55.018Z,7924.00
2022-09-30T12:19:54.984Z,8912.00
2022-09-30T12:20:54.965Z,11040.00
2022-09-30T12:21:55.000Z,11140.00
2022-09-30T12:22:54.979Z,11320.00
2022-09-30T12:23:54.953Z,11572.00
2022-09-30T12:24:54.920Z,10924.00
2022-09-30T12:25:54.986Z,11984.00
2022-09-30T12:26:54.949Z,12248.00
2022-09-30T12:27:54.942Z,12620.00
2022-09-30T12:28:54.892Z,12812.00
2022-09-30T12:29:54.884Z,12908.00
2022-09-30T12:30:54.860Z,13172.00
2022-09-30T12:31:55.023Z,10604.00
2022-09-30T12:32:54.866Z,10628.00
2022-09-30T12:33:54.833Z,9960.00
2022-09-30T12:34:54.824Z,11748.00
2022-09-30T12:35:54.838Z,9596.00